Sand Springs, MT

6:51 PM MDT on August 28, 2014 (GMT -0600)
Union Creek | Change Station
CLOSE
Current Station
Personal Weather Station
Location: Montana, MT
Elevation: 2910 ft
Nearby Weather Stations

Elev 2910 ft 47.26 °N, 107.56 °W | Updated 9 minutes ago

Clear
Clear
83.2 °F
Feels Like 81 °F
N
2.0
Wind Variable Wind from WNW
Gusts 6.0 mph

Today
High -- | Low -- °F
--% Chance of Precip.
Yesterday
High -- | Low -- °F
Precip. -- in
6:23 AM 7:56 PM
Waxing Crescent, 11% visible
Pressure 29.79 in
Visibility 10.0 miles
Clouds Few 9500 ft
Heat Index 81 °F
Dew Point 48 °F
Humidity 29%
Rainfall 0.00 in
Snow Depth Not available.
UV 1 out of 12
Pollen 9.40 out of 12
Air Quality Not available.
Flu Activity Not available.
METAR KMLS 282353Z AUTO 29014KT 10SM FEW095 31/06 A2984 RMK AO2 SLP086 T03110061 10322 20278 56010

More Conditions Fewer Conditions

Pressure 29.79 in
Visibility 10.0 miles
Clouds Few 9500 ft
Heat Index 81 °F
Dew Point 48 °F
Humidity 29%
Rainfall 0.00 in
Snow Depth Not available.
UV 1 out of 12
Pollen 9.40 out of 12
Air Quality Not available.
Flu Activity Not available.
METAR KMLS 282353Z AUTO 29014KT 10SM FEW095 31/06 A2984 RMK AO2 SLP086 T03110061 10322 20278 56010

More Conditions Fewer Conditions

10-Day Weather Forecast

Almanac

Astronomy

Aug. 28, 2014 Rise Set
Actual Time 6:23 AM MDT 7:56 PM MDT
Civil Twilight 5:51 AM MDT 8:28 PM MDT
Nautical Twilight 5:12 AM MDT 9:06 PM MDT
Astronomical Twilight 4:30 AM MDT 9:48 PM MDT
Moon 9:32 AM MDT (8/28) 9:06 PM MDT (8/28)
Length of Visible Light 14h 36m
Length of Day
13h 32m
Tomorrow will be 3m 12s shorter.
Waxing Crescent, 11% of the Moon is Illuminated
Today
Waxing Crescent
Sep 2
First Quarter
Sep 8
Full
Sep 15
Last Quarter
Sep 24
New

Today's Extremes

State Highs State Lows

Community

WunderPhotos

Upload Photos

1,748,112 photos uploaded!

Nearby

Snow Depth

Station Depth Elevation
Crystal Lake 0 in 6050 ft
Spur Park 0 in 8100 ft
Cole Creek 0 in 7850 ft
White Mill 1 in 8700 ft
Northeast Entrance 0 in 7350 ft

Earthquake Activity

City Distance Mag. Time & Date
No recent earthquake activity has been reported nearby.
Minimum magnitude displayed is 2.5.

Coastal Water Temperatures

Place Temperature
No Stations Reporting

Nearby Weather Stations